MDSD/SDQ METAR and TAF weather

Enter ICAO airport designator
Station Type Date Time Source
MDSD METAR 2024/06/14 21:00 UTC NOAA

MDSD 142100Z 17008KT 9999 FEW021 SCT300 31/26 Q1012


Station Type Date Time Source
MDSD Decoded METAR 2024/06/14 21:00 UTC NOAA

Las Americas, Dominican Republic (MDSD) 18-26N 069-40W
Jun 14, 2024 - 05:00 PM EDT / 2024.06.14 2100 UTC
Wind: from the S (170 degrees) at 9 MPH (8 KT):0
Visibility: greater than 7 mile(s):0
Sky conditions: partly cloudy
Temperature: 87 F (31 C)
Heat index: 99.7 F (37.6 C):1
Dew Point: 78 F (26 C)
Relative Humidity: 74%
Pressure (altimeter): 29.88 in. Hg (1012 hPa)
ob: MDSD 142100Z 17008KT 9999 FEW021 SCT300 31/26 Q1012
cycle: 21

Station Type Date Time Source
MDSD TAF 2024/06/14 18:00 UTC NOAA